ADDS METAR Data INFO
IDs: Format: Raw Decoded Include TAF

Data at: 2032 UTC 20 Jul 2018

KGPT 201953Z 19008KT 10SM CLR 34/26 A2992 RMK AO2 SLP130 T03390261
KGPT 201853Z VRB04KT 10SM CLR 34/24 A2994 RMK AO2 SLP138 T03440244
KGPT 201753Z 26006KT 10SM SCT034 33/26 A2995 RMK AO2 SLP143 T03330256 10333 20256 58006
KGPT 201653Z 27005KT 10SM FEW026 FEW080 33/25 A2996 RMK AO2 SLP145 T03280250
KGPT 201553Z 31006KT 10SM FEW080 31/26 A2997 RMK AO2 SLP149 T03110256
KGPT 201453Z 30006KT 10SM CLR 29/26 A2997 RMK AO2 SLP149 T02940256 50014
KGPT 201353Z 29004KT 9SM SCT045 BKN060 OVC090 27/25 A2998 RMK AO2 SLP151 T02720250
KGPT 201253Z 32004KT 10SM CLR 27/25 A2996 RMK AO2 SLP143 T02720250
KGPT 201153Z 00000KT 10SM SCT043 26/24 A2993 RMK AO2 SLP135 70001 T02560244 10256 20244 53010
KGPT 201053Z 00000KT 10SM CLR 25/24 A2991 RMK AO2 SLP129 T02500239
KGPT 200953Z 00000KT 9SM CLR 25/24 A2989 RMK AO2 SLP121 T02500239
KGPT 200853Z 00000KT 10SM CLR 25/24 A2990 RMK AO2 SLP125 T02500239 55001
KGPT 200753Z 24003KT 9SM CLR 25/24 A2989 RMK AO2 SLP120 T02500239
KGPT 200653Z 00000KT 10SM BKN050 26/24 A2990 RMK AO2 SLP125 T02560244
KGPT 200553Z 00000KT 10SM CLR 26/24 A2991 RMK AO2 SLP126 T02560239 10272 20250 403390239 58002
KGPT 200453Z 30003KT 10SM FEW075 26/24 A2992 RMK AO2 SLP132 T02560244
KGPT 200353Z 00000KT 10SM BKN055 26/24 A2992 RMK AO2 SLP132 T02610244
KGPT 200253Z AUTO 00000KT 10SM CLR 26/24 A2991 RMK AO2 SLP128 T02560244 51002
KGPT 200153Z AUTO 00000KT 10SM FEW075 SCT095 26/24 A2990 RMK AO2 SLP126 T02610244
KGPT 200121Z AUTO 28003KT 10SM FEW004 FEW100 26/24 A2991 RMK AO2 T02610244
KGPT 200053Z AUTO 35004KT 9SM FEW050 BKN100 27/24 A2991 RMK AO2 SLP129 T02720239
KGPT 200040Z AUTO 36005KT 10SM VCTS FEW060 27/23 A2992 RMK AO2 LTG DSNT N AND NE T02670233
KGPT 192353Z AUTO 00000KT 10SM FEW100 27/24 A2990 RMK AO2 LTG DSNT N SLP126 60001 T02720239 10339 20267 53002
KGPT 192253Z 24004KT 10SM SCT050 27/24 A2988 RMK AO2 LTG DSNT NW-NE SLP118 T02670239
KGPT 192153Z 28008KT 10SM BKN038 OVC049 28/25 A2990 RMK AO2 LTG DSNT NW RAB2059E35 SLP125 P0001 T02780250
KGPT 192132Z 20009KT 6SM -RA BR FEW005 SCT012 BKN038 28/26 A2990 RMK AO2 LTG DSNT E AND W AND NW RAB2059 P0001 T02830261
KGPT 192128Z 17010KT 5SM -RA BR SCT012 BKN026 BKN039 28/26 A2990 RMK AO2 LTG DSNT E AND W AND NW RAB2059 P0001 T02780256
KGPT 192053Z 10SM FEW026 BKN038 BKN046 31/25 A2990 RMK AO2 LTG DSNT NE AND SW AND W SLP123 T03110250 55012
KGPT 192038Z 30004KT 10SM VCTS BKN033 33/24 A2989 RMK AO2 LTG DSNT NE AND SW AND W T03280244
KGPT 192000Z 02005KT 10SM BKN033 33/25 A2989 RMK AO2 LTG DSNT SW-N T03330250
KGPT 191953Z 01004KT 10SM BKN021 33/24 A2989 RMK AO2 LTG DSNT SW-NW SLP121 T03280244
KGPT 191853Z 29005KT 10SM BKN021 BKN026 31/26 A2992 RMK AO2 SLP132 T03060256
KGPT 191753Z VRB05KT 10SM BKN020 BKN027 30/26 A2993 RMK AO2 SLP135 T03000256 10306 20244 58005
KGPT 191716Z 00000KT 10SM BKN016 BKN023 OVC048 30/26 A2994 RMK AO2 T03000256
KGPT 191653Z 30005KT 10SM BKN013 OVC020 29/26 A2995 RMK AO2 SLP140 T02940256
KGPT 191553Z 30003KT 10SM OVC012 29/26 A2995 RMK AO2 SLP142 T02890256
KGPT 191514Z 29007KT 10SM BKN010 28/26 A2995 RMK AO2 T02830256
KGPT 191453Z COR 28006KT 10SM SCT010 28/26 A2995 RMK AO2 SLP141 T02830256 58001
KGPT 191353Z 29004KT 10SM FEW014 27/25 A2995 RMK AO2 SLP143 T02720250
KGPT 191326Z COR 32003KT 10SM FEW014 27/24 A2995 RMK AO2 T02670244
KGPT 191253Z 35003KT 10SM BKN016 26/24 A2995 RMK AO2 SLP141 T02610239
KGPT 191153Z 00000KT 10SM BKN019 24/23 A2995 RMK AO2 SLP142 70034 T02440233 10244 20239 51007
KGPT 191151Z 00000KT 10SM BKN019 24/23 A2995 RMK AO2
KGPT 191104Z 00000KT 8SM SCT021 24/23 A2995 RMK AO2 T02390233
KGPT 191053Z 00000KT 9SM BKN021 24/23 A2994 RMK AO2 SLP139 T02440233
KGPT 191035Z 00000KT 10SM BKN021 24/23 A2994 RMK AO2 T02440233
KGPT 190953Z 00000KT 10SM SCT033 BKN047 OVC090 24/23 A2993 RMK AO2 SLP135 T02440233
KGPT 190853Z 00000KT 10SM FEW039 FEW049 24/23 A2992 RMK AO2 SLP132 T02390228 51005